Time;durP1;ratioP1;P1;durP2;ratioP2;P2;SDS_P1;SDS_P2;PMS_P1;PMS_P2;Temp;Humidity;BMP_temperature;BMP_pressure;BME280_temperature;BME280_humidity;BME280_pressure;Samples;Min_cycle;Max_cycle;Signal;HPM_P1;HPM_P2
2021/06/06 00:02:12;;;;;;;40.30;24.65;;;;;;;-145.50;100.00;65435.88;5103841;27;20139;-75
2021/06/06 00:04:44;;;;;;;44.63;27.08;;;;;;;-145.50;100.00;65435.88;5095727;28;20490;-76
2021/06/06 00:07:13;;;;;;;45.33;26.92;;;;;;;-145.50;100.00;65435.88;5086322;28;20130;-75
2021/06/06 00:09:39;;;;;;;46.03;26.75;;;;;;;-145.50;100.00;65435.88;5068319;28;20051;-75
2021/06/06 00:12:07;;;;;;;43.20;26.13;;;;;;;-145.50;100.00;65435.88;5099339;28;20570;-76
2021/06/06 00:14:37;;;;;;;49.85;27.73;;;;;;;-145.50;100.00;65435.88;5094166;27;20130;-75
2021/06/06 00:17:09;;;;;;;43.50;25.77;;;;;;;-145.50;100.00;65435.88;5086345;28;20079;-75
2021/06/06 00:19:36;;;;;;;40.80;24.83;;;;;;;-145.50;100.00;65435.88;5075708;28;20096;-76
2021/06/06 00:22:06;;;;;;;37.63;24.40;;;;;;;-145.50;100.00;65435.88;5080192;28;20133;-75
2021/06/06 00:24:34;;;;;;;39.33;24.42;;;;;;;-145.50;100.00;65435.88;5089100;27;20150;-75
2021/06/06 00:27:01;;;;;;;35.70;23.35;;;;;;;-145.50;100.00;65435.88;5104279;28;20548;-75
2021/06/06 00:29:28;;;;;;;36.80;23.42;;;;;;;-145.50;100.00;65435.88;5102370;28;20483;-76
2021/06/06 00:31:56;;;;;;;41.33;24.88;;;;;;;-145.50;100.00;65435.88;5093514;28;20511;-76
2021/06/06 00:34:23;;;;;;;40.95;23.02;;;;;;;-145.50;100.00;65435.88;5101454;28;20210;-75
2021/06/06 00:36:49;;;;;;;35.33;23.00;;;;;;;-145.50;100.00;65435.88;5088304;28;20344;-75
2021/06/06 00:39:16;;;;;;;41.30;24.10;;;;;;;-145.50;100.00;65435.88;5104653;27;20156;-75
2021/06/06 00:41:47;;;;;;;39.88;22.90;;;;;;;-145.50;100.00;65435.88;5083267;28;20493;-75
2021/06/06 00:44:14;;;;;;;39.97;23.77;;;;;;;-145.50;100.00;65435.88;5103190;28;20154;-75
2021/06/06 00:46:42;;;;;;;40.15;23.42;;;;;;;-145.50;100.00;65435.88;5097377;28;20142;-75
2021/06/06 00:49:09;;;;;;;42.28;22.75;;;;;;;-145.50;100.00;65435.88;5080934;28;20119;-75
2021/06/06 00:51:53;;;;;;;39.25;23.08;;;;;;;-145.50;100.00;65435.88;5075047;28;20131;-75
2021/06/06 00:54:28;;;;;;;44.38;25.02;;;;;;;-145.50;100.00;65435.88;5073394;28;20130;-75
2021/06/06 00:57:09;;;;;;;49.40;25.77;;;;;;;-145.50;100.00;65435.88;5078294;28;20134;-76
2021/06/06 00:59:38;;;;;;;43.63;22.77;;;;;;;-145.50;100.00;65435.88;5099887;27;20518;-75
2021/06/06 01:02:07;;;;;;;38.90;22.38;;;;;;;-145.50;100.00;65435.88;5105848;28;20097;-75
2021/06/06 01:04:35;;;;;;;42.85;23.02;;;;;;;-145.50;100.00;65435.88;5074436;28;20143;-76
2021/06/06 01:07:02;;;;;;;;;;;;;;;-145.50;100.00;65435.88;5100047;28;20098;-76
2021/06/06 01:09:29;;;;;;;43.70;22.55;;;;;;;-145.50;100.00;65435.88;5095244;27;20022;-76
2021/06/06 01:12:02;;;;;;;41.75;21.98;;;;;;;-145.50;100.00;65435.88;5101748;28;20134;-75
2021/06/06 01:14:36;;;;;;;41.80;21.70;;;;;;;-145.50;100.00;65435.88;5095112;27;20695;-75
2021/06/06 01:17:02;;;;;;;47.47;23.17;;;;;;;-145.50;100.00;65435.88;5094593;28;20776;-75
2021/06/06 01:19:41;;;;;;;41.97;21.60;;;;;;;-145.50;100.00;65435.88;5096921;28;20043;-75
2021/06/06 01:22:37;;;;;;;42.35;22.15;;;;;;;-145.50;100.00;65435.88;5092190;28;20150;-75
2021/06/06 01:25:30;;;;;;;42.90;19.85;;;;;;;-145.50;100.00;65435.88;5083491;28;20344;-75
2021/06/06 01:28:08;;;;;;;43.85;20.60;;;;;;;-145.50;100.00;65435.88;5092885;28;20047;-75
2021/06/06 01:30:39;;;;;;;42.80;21.08;;;;;;;-145.50;100.00;65435.88;5101070;27;20925;-74
2021/06/06 01:33:20;;;;;;;37.58;21.30;;;;;;;-145.50;100.00;65435.88;5075248;28;20050;-75
2021/06/06 01:35:54;;;;;;;41.80;19.75;;;;;;;-145.50;100.00;65435.88;5106247;27;20071;-74
2021/06/06 01:38:27;;;;;;;38.28;19.73;;;;;;;-145.50;100.00;65435.88;5098951;28;20067;-74
2021/06/06 01:40:58;;;;;;;38.22;19.65;;;;;;;-145.50;100.00;65435.88;5085947;28;20134;-75
2021/06/06 01:43:30;;;;;;;37.13;19.92;;;;;;;-145.50;100.00;65435.88;5092779;28;20093;-75
2021/06/06 01:46:02;;;;;;;41.40;21.02;;;;;;;-145.50;100.00;65435.88;5098447;27;20086;-75
2021/06/06 01:48:30;;;;;;;47.83;21.95;;;;;;;-145.50;100.00;65435.88;5096832;28;20150;-75
2021/06/06 01:51:02;;;;;;;38.30;20.48;;;;;;;-145.50;100.00;65435.88;5102046;27;20083;-75
2021/06/06 01:53:29;;;;;;;34.70;20.35;;;;;;;-145.50;100.00;65435.88;5093025;28;20142;-75
2021/06/06 01:55:59;;;;;;;38.15;20.30;;;;;;;-145.50;100.00;65435.88;5104276;27;20138;-75
2021/06/06 01:58:27;;;;;;;41.38;19.95;;;;;;;-145.50;100.00;65435.88;5093592;28;20146;-75
2021/06/06 02:00:58;;;;;;;37.70;20.02;;;;;;;-145.50;100.00;65435.88;5078874;28;20104;-75
2021/06/06 02:03:26;;;;;;;37.30;20.35;;;;;;;-145.50;100.00;65435.88;5095598;28;20128;-75
2021/06/06 02:05:55;;;;;;;43.28;21.40;;;;;;;-145.50;100.00;65435.88;5095556;27;20083;-75
2021/06/06 02:08:26;;;;;;;41.15;21.38;;;;;;;-145.50;100.00;65435.88;5100903;28;20478;-75
2021/06/06 02:10:57;;;;;;;34.08;20.33;;;;;;;-145.50;100.00;65435.88;5096083;27;20150;-76
2021/06/06 02:13:40;;;;;;;39.75;21.27;;;;;;;-145.50;100.00;65435.88;5091953;28;20159;-75
2021/06/06 02:16:07;;;;;;;46.75;22.73;;;;;;;-145.50;100.00;65435.88;5089540;28;20086;-75
2021/06/06 02:18:34;;;;;;;47.95;22.20;;;;;;;-145.50;100.00;65435.88;5101527;28;20538;-76
2021/06/06 02:21:01;;;;;;;44.03;21.65;;;;;;;-145.50;100.00;65435.88;5075073;28;20052;-76
2021/06/06 02:23:31;;;;;;;43.25;21.95;;;;;;;-145.50;100.00;65435.88;5099557;28;20086;-75
2021/06/06 02:26:07;;;;;;;38.85;21.30;;;;;;;-145.50;100.00;65435.88;5093806;27;20087;-75
2021/06/06 02:28:45;;;;;;;43.30;22.45;;;;;;;-145.50;100.00;65435.88;5092995;28;20171;-76
2021/06/06 02:31:37;;;;;;;47.20;21.42;;;;;;;-145.50;100.00;65435.88;5095058;28;20047;-76
2021/06/06 02:34:17;;;;;;;40.22;22.25;;;;;;;-145.50;100.00;65435.88;5100233;28;20059;-75
2021/06/06 02:37:12;;;;;;;45.42;22.98;;;;;;;-145.50;100.00;65435.88;5102215;28;20127;-75
2021/06/06 02:39:43;;;;;;;45.40;24.35;;;;;;;-145.50;100.00;65435.88;5081225;28;20174;-76
2021/06/06 02:42:18;;;;;;;52.08;25.67;;;;;;;-145.50;100.00;65435.88;5076388;28;20120;-75
2021/06/06 02:45:00;;;;;;;40.53;23.55;;;;;;;-145.50;100.00;65435.88;5098843;28;20142;-76
2021/06/06 02:47:31;;;;;;;47.80;24.65;;;;;;;-145.50;100.00;65435.88;5098261;28;20086;-75
2021/06/06 02:50:10;;;;;;;51.45;26.55;;;;;;;-145.50;100.00;65435.88;5091328;28;20166;-75
2021/06/06 02:52:51;;;;;;;49.67;25.65;;;;;;;-145.50;100.00;65435.88;5098235;28;20048;-75
2021/06/06 02:55:22;;;;;;;54.58;26.58;;;;;;;-145.50;100.00;65435.88;5089158;28;20390;-75
2021/06/06 02:58:02;;;;;;;60.45;28.27;;;;;;;-145.50;100.00;65435.88;5097745;28;20082;-76
2021/06/06 03:00:31;;;;;;;55.22;26.60;;;;;;;-145.50;100.00;65435.88;5089844;27;20391;-75
2021/06/06 03:03:07;;;;;;;52.22;26.00;;;;;;;-145.50;100.00;65435.88;5086514;28;20489;-75
2021/06/06 03:05:34;;;;;;;50.25;25.38;;;;;;;-145.50;100.00;65435.88;5098491;28;20130;-75
2021/06/06 03:08:03;;;;;;;55.38;26.98;;;;;;;-145.50;100.00;65435.88;5078263;28;20109;-75
2021/06/06 03:10:32;;;;;;;47.53;25.27;;;;;;;-145.50;100.00;65435.88;5095586;28;20087;-76
2021/06/06 03:13:03;;;;;;;52.45;25.75;;;;;;;-145.50;100.00;65435.88;5100910;28;20075;-76
2021/06/06 03:15:35;;;;;;;56.40;26.95;;;;;;;-145.50;100.00;65435.88;5100153;28;20093;-75
2021/06/06 03:18:04;;;;;;;57.03;26.33;;;;;;;-145.50;100.00;65435.88;5100435;28;20397;-76
2021/06/06 03:20:40;;;;;;;60.72;26.80;;;;;;;-145.50;100.00;65435.88;5099556;28;20485;-75
2021/06/06 03:23:09;;;;;;;57.58;27.55;;;;;;;-145.50;100.00;65435.88;5070538;28;20124;-75
2021/06/06 03:25:51;;;;;;;51.80;26.67;;;;;;;-145.50;100.00;65435.88;5101403;28;20138;-75
2021/06/06 03:28:22;;;;;;;52.20;26.98;;;;;;;-145.50;100.00;65435.88;5086456;28;20048;-77
2021/06/06 03:30:58;;;;;;;48.55;24.48;;;;;;;-145.50;100.00;65435.88;5101223;28;20206;-75
2021/06/06 03:33:48;;;;;;;51.53;27.00;;;;;;;-145.50;100.00;65435.88;5091195;28;20363;-75
2021/06/06 03:36:19;;;;;;;49.10;25.65;;;;;;;-145.50;100.00;65435.88;5092245;28;20048;-75
2021/06/06 03:38:46;;;;;;;40.70;23.83;;;;;;;-145.50;100.00;65435.88;5091538;28;20154;-75
2021/06/06 03:41:12;;;;;;;50.50;26.52;;;;;;;-145.50;100.00;65435.88;5085713;28;20143;-75
2021/06/06 03:43:40;;;;;;;51.92;26.58;;;;;;;-145.50;100.00;65435.88;5092866;28;20147;-75
2021/06/06 03:46:06;;;;;;;49.80;26.45;;;;;;;-145.50;100.00;65435.88;5098326;28;20542;-75
2021/06/06 03:48:33;;;;;;;55.13;27.63;;;;;;;-145.50;100.00;65435.88;5091261;28;20106;-75
2021/06/06 03:51:00;;;;;;;56.53;28.65;;;;;;;-145.50;100.00;65435.88;5087591;28;20134;-75
2021/06/06 03:53:27;;;;;;;60.10;28.75;;;;;;;-145.50;100.00;65435.88;5097698;28;20195;-76
2021/06/06 03:55:54;;;;;;;53.65;27.20;;;;;;;-145.50;100.00;65435.88;5094131;28;20423;-75
2021/06/06 03:58:22;;;;;;;55.67;28.10;;;;;;;-145.50;100.00;65435.88;5100048;28;20547;-75
2021/06/06 04:00:50;;;;;;;59.70;28.55;;;;;;;-145.50;100.00;65435.88;5092249;28;20059;-75
2021/06/06 04:03:18;;;;;;;;;;;;;;;-145.50;100.00;65435.88;5094039;28;20135;-75
2021/06/06 04:05:45;;;;;;;46.50;24.77;;;;;;;-145.50;100.00;65435.88;5086230;28;19928;-75
2021/06/06 04:08:12;;;;;;;45.65;26.05;;;;;;;-145.50;100.00;65435.88;5081669;28;20087;-75
2021/06/06 04:10:39;;;;;;;40.80;23.60;;;;;;;-145.50;100.00;65435.88;5078601;27;20122;-75
2021/06/06 04:13:06;;;;;;;46.78;25.50;;;;;;;-145.50;100.00;65435.88;5103978;27;20078;-75
2021/06/06 04:15:33;;;;;;;52.47;26.35;;;;;;;-145.50;100.00;65435.88;5101257;27;20134;-75
2021/06/06 04:18:20;;;;;;;40.08;24.77;;;;;;;-145.50;100.00;65435.88;5072853;28;20140;-76
2021/06/06 04:20:48;;;;;;;49.33;26.50;;;;;;;-145.50;100.00;65435.88;5093472;27;20079;-75
2021/06/06 04:23:15;;;;;;;47.22;25.33;;;;;;;-145.50;100.00;65435.88;5098666;27;20078;-75
2021/06/06 04:25:42;;;;;;;50.13;27.05;;;;;;;-145.50;100.00;65435.88;5087932;28;20138;-75
2021/06/06 04:28:10;;;;;;;40.38;24.95;;;;;;;-145.50;100.00;65435.88;5081315;28;20142;-75
2021/06/06 04:30:37;;;;;;;49.28;26.15;;;;;;;-145.50;100.00;65435.88;5081574;28;20075;-75
2021/06/06 04:33:07;;;;;;;45.67;25.67;;;;;;;-145.50;100.00;65435.88;5070686;28;20105;-75
2021/06/06 04:35:36;;;;;;;48.10;25.45;;;;;;;-145.50;100.00;65435.88;5093629;28;20626;-75
2021/06/06 04:38:02;;;;;;;;;;;;;;;-145.50;100.00;65435.88;5103082;27;20546;-75
2021/06/06 04:40:29;;;;;;;43.00;24.25;;;;;;;-145.50;100.00;65435.88;5098120;28;20014;-75
2021/06/06 04:42:56;;;;;;;49.40;24.83;;;;;;;-145.50;100.00;65435.88;5103665;28;20142;-74
2021/06/06 04:45:23;;;;;;;45.13;25.08;;;;;;;-145.50;100.00;65435.88;5068430;28;20491;-74
2021/06/06 04:47:49;;;;;;;46.58;25.55;;;;;;;-145.50;100.00;65435.88;5082387;28;20166;-75
2021/06/06 04:50:17;;;;;;;46.17;24.75;;;;;;;-145.50;100.00;65435.88;5096506;27;20054;-75
2021/06/06 04:52:43;;;;;;;45.47;25.50;;;;;;;-145.50;100.00;65435.88;5101570;27;20130;-75
2021/06/06 04:55:17;;;;;;;45.67;24.75;;;;;;;-145.50;100.00;65435.88;5096245;28;20087;-75
2021/06/06 04:57:44;;;;;;;49.53;26.27;;;;;;;-145.50;100.00;65435.88;5096752;28;20087;-75
2021/06/06 05:00:16;;;;;;;48.60;25.83;;;;;;;-145.50;100.00;65435.88;5093623;28;20079;-74
2021/06/06 05:02:43;;;;;;;49.22;24.20;;;;;;;-145.50;100.00;65435.88;5100208;27;20258;-75
2021/06/06 05:05:11;;;;;;;47.05;25.58;;;;;;;-145.50;100.00;65435.88;5113923;27;20090;-75
2021/06/06 05:07:37;;;;;;;46.63;25.05;;;;;;;-145.50;100.00;65435.88;5098169;28;20418;-74
2021/06/06 05:10:07;;;;;;;43.60;23.50;;;;;;;-145.50;100.00;65435.88;5106454;28;20075;-75
2021/06/06 05:12:34;;;;;;;42.85;23.05;;;;;;;-145.50;100.00;65435.88;5076309;28;20131;-76
2021/06/06 05:15:01;;;;;;;46.67;23.95;;;;;;;-145.50;100.00;65435.88;5101090;27;20106;-76
2021/06/06 05:17:27;;;;;;;47.42;22.92;;;;;;;-145.50;100.00;65435.88;5096506;27;20048;-76
2021/06/06 05:19:54;;;;;;;49.75;24.50;;;;;;;-145.50;100.00;65435.88;5098095;28;20071;-76
2021/06/06 05:22:20;;;;;;;50.35;25.67;;;;;;;-145.50;100.00;65435.88;5076791;28;20134;-75
2021/06/06 05:24:47;;;;;;;44.78;23.27;;;;;;;-145.50;100.00;65435.88;5083955;28;20442;-76
2021/06/06 05:27:14;;;;;;;39.28;23.10;;;;;;;-145.50;100.00;65435.88;5098395;27;20104;-75
2021/06/06 05:29:41;;;;;;;39.60;23.05;;;;;;;-145.50;100.00;65435.88;5092681;28;20143;-76
2021/06/06 05:32:07;;;;;;;41.40;23.27;;;;;;;-145.50;100.00;65435.88;5100780;27;20051;-75
2021/06/06 05:34:34;;;;;;;47.10;22.85;;;;;;;-145.50;100.00;65435.88;5097076;28;20436;-76
2021/06/06 05:37:00;;;;;;;40.10;22.17;;;;;;;-145.50;100.00;65435.88;5085967;28;20079;-76
2021/06/06 05:39:27;;;;;;;40.53;21.73;;;;;;;-145.50;100.00;65435.88;5092984;28;20138;-76
2021/06/06 05:41:53;;;;;;;39.22;21.63;;;;;;;-145.50;100.00;65435.88;5080697;28;20130;-76
2021/06/06 05:44:22;;;;;;;35.10;20.60;;;;;;;-145.50;100.00;65435.88;5082333;28;20071;-76
2021/06/06 05:46:48;;;;;;;33.60;19.50;;;;;;;-145.50;100.00;65435.88;5096639;27;20051;-76
2021/06/06 05:49:15;;;;;;;31.50;19.70;;;;;;;-145.50;100.00;65435.88;5083636;28;20075;-76
2021/06/06 05:51:41;;;;;;;39.63;20.75;;;;;;;-145.50;100.00;65435.88;5078181;27;20094;-76
2021/06/06 05:54:08;;;;;;;39.83;22.00;;;;;;;-145.50;100.00;65435.88;5077186;28;20735;-76
2021/06/06 05:56:34;;;;;;;34.63;19.48;;;;;;;-145.50;100.00;65435.88;5082500;28;20095;-76
2021/06/06 05:59:01;;;;;;;33.92;19.38;;;;;;;-145.50;100.00;65435.88;5084632;28;20075;-76
2021/06/06 06:01:27;;;;;;;34.05;19.50;;;;;;;-145.50;100.00;65435.88;5099234;28;20100;-76
2021/06/06 06:03:54;;;;;;;38.08;20.88;;;;;;;-145.50;100.00;65435.88;5101589;27;20048;-76
2021/06/06 06:06:20;;;;;;;38.17;21.15;;;;;;;-145.50;100.00;65435.88;5083652;28;20499;-76
2021/06/06 06:08:47;;;;;;;32.17;20.52;;;;;;;-145.50;100.00;65435.88;5073056;28;20142;-75
2021/06/06 06:11:17;;;;;;;34.50;20.58;;;;;;;-145.50;100.00;65435.88;5101180;28;20130;-75
2021/06/06 06:13:46;;;;;;;33.53;19.67;;;;;;;-145.50;100.00;65435.88;5092293;28;20455;-75
2021/06/06 06:16:15;;;;;;;40.58;22.80;;;;;;;-145.50;100.00;65435.88;5101694;28;20173;-75
2021/06/06 06:18:43;;;;;;;35.35;21.15;;;;;;;-145.50;100.00;65435.88;5074107;28;20055;-75
2021/06/06 06:21:12;;;;;;;34.90;20.75;;;;;;;-145.50;100.00;65435.88;5090235;28;20100;-75
2021/06/06 06:23:39;;;;;;;34.30;20.20;;;;;;;-145.50;100.00;65435.88;5076311;28;20082;-75
2021/06/06 06:26:06;;;;;;;35.95;21.33;;;;;;;-145.50;100.00;65435.88;5101184;28;20159;-74
2021/06/06 06:28:33;;;;;;;34.25;21.23;;;;;;;-145.50;100.00;65435.88;5085408;28;20695;-75
2021/06/06 06:31:01;;;;;;;38.90;21.50;;;;;;;-145.50;100.00;65435.88;5088938;28;20067;-75
2021/06/06 06:33:28;;;;;;;36.70;21.85;;;;;;;-145.50;100.00;65435.88;5095428;28;20142;-76
2021/06/06 06:35:55;;;;;;;39.13;22.33;;;;;;;-145.50;100.00;65435.88;5069009;28;20587;-75
2021/06/06 06:38:23;;;;;;;34.85;20.45;;;;;;;-145.50;100.00;65435.88;5103877;27;20108;-75
2021/06/06 06:40:50;;;;;;;36.33;21.83;;;;;;;-145.50;100.00;65435.88;5096490;28;20130;-75
2021/06/06 06:43:16;;;;;;;37.03;21.05;;;;;;;-145.50;100.00;65435.88;5102206;27;20929;-75
2021/06/06 06:45:43;;;;;;;35.10;20.70;;;;;;;-145.50;100.00;65435.88;5078308;28;20108;-75
2021/06/06 06:48:19;;;;;;;31.98;18.90;;;;;;;-145.50;100.00;65435.88;5078195;28;20087;-75
2021/06/06 06:50:47;;;;;;;33.20;20.25;;;;;;;-145.50;100.00;65435.88;5098841;28;20159;-75
2021/06/06 06:53:14;;;;;;;34.42;19.92;;;;;;;-145.50;100.00;65435.88;5096584;27;20167;-74
2021/06/06 06:55:41;;;;;;;32.28;20.00;;;;;;;-145.50;100.00;65435.88;5080521;28;20126;-75
2021/06/06 06:58:07;;;;;;;31.75;19.88;;;;;;;-145.50;100.00;65435.88;5093917;27;20138;-75
2021/06/06 07:00:38;;;;;;;30.35;20.00;;;;;;;-145.50;100.00;65435.88;5099610;28;20127;-75
2021/06/06 07:03:06;;;;;;;29.67;19.10;;;;;;;-145.50;100.00;65435.88;5094756;27;20636;-75
2021/06/06 07:05:33;;;;;;;;;;;;;;;-145.50;100.00;65435.88;5102319;28;20134;-75
2021/06/06 07:08:00;;;;;;;32.35;19.23;;;;;;;-145.50;100.00;65435.88;5097992;27;20026;-75
2021/06/06 07:10:30;;;;;;;31.00;19.92;;;;;;;-145.50;100.00;65435.88;5101997;28;20452;-75
2021/06/06 07:12:57;;;;;;;32.15;18.88;;;;;;;-145.50;100.00;65435.88;5102146;28;20079;-75
2021/06/06 07:15:25;;;;;;;30.58;20.20;;;;;;;-145.50;100.00;65435.88;5074355;28;20160;-75
2021/06/06 07:17:52;;;;;;;31.15;18.80;;;;;;;-145.50;100.00;65435.88;5096570;28;20155;-75
2021/06/06 07:20:23;;;;;;;28.85;19.17;;;;;;;-145.50;100.00;65435.88;5074251;28;20155;-75
2021/06/06 07:22:50;;;;;;;32.80;19.85;;;;;;;-145.50;100.00;65435.88;5098915;28;20138;-75
2021/06/06 07:25:18;;;;;;;34.70;20.55;;;;;;;-145.50;100.00;65435.88;5090648;28;20491;-75
2021/06/06 07:27:45;;;;;;;31.77;20.57;;;;;;;-145.50;100.00;65435.88;5104055;28;20083;-76
2021/06/06 07:30:18;;;;;;;35.00;20.52;;;;;;;-145.50;100.00;65435.88;5085537;28;20154;-75
2021/06/06 07:32:44;;;;;;;35.10;20.92;;;;;;;-145.50;100.00;65435.88;5098315;28;20112;-75
2021/06/06 07:35:12;;;;;;;34.15;20.60;;;;;;;-145.50;100.00;65435.88;5091331;28;20570;-75
2021/06/06 07:37:40;;;;;;;28.83;18.55;;;;;;;-145.50;100.00;65435.88;5096342;28;20051;-75
2021/06/06 07:40:08;;;;;;;28.42;18.75;;;;;;;-145.50;100.00;65435.88;5099513;28;20071;-75
2021/06/06 07:42:34;;;;;;;32.92;20.13;;;;;;;-145.50;100.00;65435.88;5093470;27;20328;-76
2021/06/06 07:45:04;;;;;;;34.10;20.48;;;;;;;-145.50;100.00;65435.88;5077822;28;20142;-75
2021/06/06 07:47:31;;;;;;;30.30;20.30;;;;;;;-145.50;100.00;65435.88;5093126;28;20086;-74
2021/06/06 07:49:59;;;;;;;34.85;21.60;;;;;;;-145.50;100.00;65435.88;5105107;27;20171;-75
2021/06/06 07:52:25;;;;;;;27.50;19.77;;;;;;;-145.50;100.00;65435.88;5092008;27;20285;-75
2021/06/06 07:54:51;;;;;;;31.58;20.52;;;;;;;-145.50;100.00;65435.88;5103969;28;20158;-75
2021/06/06 07:57:18;;;;;;;31.00;20.08;;;;;;;-145.50;100.00;65435.88;5095249;28;20174;-75
2021/06/06 07:59:45;;;;;;;28.95;18.30;;;;;;;-145.50;100.00;65435.88;5098565;27;20555;-75
2021/06/06 08:02:13;;;;;;;30.95;18.35;;;;;;;-145.50;100.00;65435.88;5103639;28;20059;-75
2021/06/06 08:04:40;;;;;;;;;;;;;;;-145.50;100.00;65435.88;5100212;28;20522;-75
2021/06/06 08:07:06;;;;;;;27.08;17.77;;;;;;;-145.50;100.00;65435.88;5112425;27;20026;-75
2021/06/06 08:09:33;;;;;;;26.63;17.67;;;;;;;-145.50;100.00;65435.88;5093612;28;20167;-76
2021/06/06 08:12:00;;;;;;;28.67;16.77;;;;;;;-145.50;100.00;65435.88;5078813;28;20509;-76
2021/06/06 08:14:29;;;;;;;25.35;17.00;;;;;;;-145.50;100.00;65435.88;5090422;27;20086;-75
2021/06/06 08:16:56;;;;;;;23.30;16.60;;;;;;;-145.50;100.00;65435.88;5104438;28;20070;-75
2021/06/06 08:19:22;;;;;;;27.17;16.95;;;;;;;-145.50;100.00;65435.88;5076156;28;20146;-75
2021/06/06 08:21:50;;;;;;;26.25;16.00;;;;;;;-145.50;100.00;65435.88;5103008;28;20135;-76
2021/06/06 08:24:17;;;;;;;23.83;16.27;;;;;;;-145.50;100.00;65435.88;5084439;28;20134;-75
2021/06/06 08:26:43;;;;;;;21.08;15.73;;;;;;;-145.50;100.00;65435.88;5073689;28;20550;-76
2021/06/06 08:29:10;;;;;;;21.98;15.30;;;;;;;-145.50;100.00;65435.88;5104629;27;20043;-75
2021/06/06 08:31:39;;;;;;;22.48;14.63;;;;;;;-145.50;100.00;65435.88;5072360;28;20163;-76
2021/06/06 08:34:09;;;;;;;23.08;14.73;;;;;;;-145.50;100.00;65435.88;5105355;27;20043;-76
2021/06/06 08:36:46;;;;;;;21.05;15.25;;;;;;;-145.50;100.00;65435.88;5098428;27;20167;-77
2021/06/06 08:39:25;;;;;;;21.77;15.75;;;;;;;-145.50;100.00;65435.88;5094227;27;20052;-76
2021/06/06 08:42:02;;;;;;;18.42;14.27;;;;;;;-145.50;100.00;65435.88;5088836;28;20487;-76
2021/06/06 08:44:54;;;;;;;18.38;13.63;;;;;;;-145.50;100.00;65435.88;5099105;27;20116;-77
2021/06/06 08:47:27;;;;;;;18.25;13.65;;;;;;;-145.50;100.00;65435.88;5075717;28;20228;-76
2021/06/06 08:49:57;;;;;;;19.55;13.70;;;;;;;-145.50;100.00;65435.88;5085275;28;20153;-76
2021/06/06 08:52:50;;;;;;;19.13;13.63;;;;;;;-145.50;100.00;65435.88;5071668;28;20079;-75
2021/06/06 08:55:38;;;;;;;19.23;13.95;;;;;;;-145.50;100.00;65435.88;5079248;28;20385;-75
2021/06/06 08:58:18;;;;;;;17.20;13.23;;;;;;;-145.50;100.00;65435.88;5067475;28;20562;-75
2021/06/06 09:01:00;;;;;;;17.90;13.23;;;;;;;-145.50;100.00;65435.88;5099819;27;20090;-75
2021/06/06 09:03:29;;;;;;;15.65;11.80;;;;;;;-145.50;100.00;65435.88;5095115;27;20413;-76
2021/06/06 09:06:15;;;;;;;15.15;11.23;;;;;;;-145.50;100.00;65435.88;5096062;27;20487;-75
2021/06/06 09:08:41;;;;;;;14.02;10.77;;;;;;;-145.50;100.00;65435.88;5087125;27;20112;-75
2021/06/06 09:11:12;;;;;;;15.60;10.80;;;;;;;-145.50;100.00;65435.88;5099937;28;20067;-75
2021/06/06 09:13:39;;;;;;;17.73;11.23;;;;;;;-145.50;100.00;65435.88;5102685;27;20490;-76
2021/06/06 09:16:15;;;;;;;19.50;10.32;;;;;;;-145.50;100.00;65435.88;5093211;27;20710;-75
2021/06/06 09:18:46;;;;;;;14.02;10.57;;;;;;;-145.50;100.00;65435.88;5085867;27;20414;-76
2021/06/06 09:21:19;;;;;;;12.48;9.30;;;;;;;-145.50;100.00;65435.88;5085246;28;20047;-75
2021/06/06 09:23:52;;;;;;;16.63;10.07;;;;;;;-145.50;100.00;65435.88;5081844;28;20090;-76
2021/06/06 09:26:18;;;;;;;15.75;9.73;;;;;;;-145.50;100.00;65435.88;5093554;27;20078;-75
2021/06/06 09:28:48;;;;;;;17.27;9.07;;;;;;;-145.50;100.00;65435.88;5104900;28;20113;-76
2021/06/06 09:31:18;;;;;;;14.20;10.65;;;;;;;-145.50;100.00;65435.88;5094180;27;20554;-75
2021/06/06 09:33:46;;;;;;;13.55;9.65;;;;;;;-145.50;100.00;65435.88;5100014;28;20491;-75
2021/06/06 09:36:25;;;;;;;12.90;9.73;;;;;;;-145.50;100.00;65435.88;5098911;27;20090;-75
2021/06/06 09:38:54;;;;;;;12.10;9.40;;;;;;;-145.50;100.00;65435.88;5097076;27;20626;-75
2021/06/06 09:41:34;;;;;;;12.93;10.10;;;;;;;-145.50;100.00;65435.88;5100579;27;20097;-75
2021/06/06 09:44:10;;;;;;;15.10;9.55;;;;;;;-145.50;100.00;65435.88;5093718;27;20058;-78
2021/06/06 09:46:39;;;;;;;13.70;10.02;;;;;;;-145.50;100.00;65435.88;5100401;28;20399;-76
2021/06/06 09:49:14;;;;;;;11.63;9.18;;;;;;;-145.50;100.00;65435.88;5088048;28;20544;-76
2021/06/06 09:51:41;;;;;;;11.20;8.73;;;;;;;-145.50;100.00;65435.88;5079561;28;20083;-76
2021/06/06 09:54:17;;;;;;;15.85;9.77;;;;;;;-145.50;100.00;65435.88;5077589;27;20188;-76
2021/06/06 09:56:53;;;;;;;11.13;8.10;;;;;;;-145.50;100.00;65435.88;5099792;28;20043;-75
2021/06/06 09:59:26;;;;;;;11.07;8.38;;;;;;;-145.50;100.00;65435.88;5096722;28;20060;-75
2021/06/06 10:01:59;;;;;;;12.02;8.68;;;;;;;-145.50;100.00;65435.88;5081797;28;20632;-75
2021/06/06 10:04:31;;;;;;;10.38;8.68;;;;;;;-145.50;100.00;65435.88;5094637;27;20498;-75
2021/06/06 10:07:30;;;;;;;13.65;8.02;;;;;;;-145.50;100.00;65435.88;5082252;28;20156;-75
2021/06/06 10:09:58;;;;;;;11.90;7.75;;;;;;;-145.50;100.00;65435.88;5098885;27;20065;-75
2021/06/06 10:12:31;;;;;;;;;;;;;;;-145.50;100.00;65435.88;5096174;28;20052;-75
2021/06/06 10:15:01;;;;;;;10.50;7.65;;;;;;;-145.50;100.00;65435.88;5083528;28;19929;-76
2021/06/06 10:17:43;;;;;;;12.60;8.02;;;;;;;-145.50;100.00;65435.88;5072991;28;20055;-75
2021/06/06 10:20:24;;;;;;;11.95;8.43;;;;;;;-145.50;100.00;65435.88;5100481;28;20137;-75
2021/06/06 10:22:53;;;;;;;10.05;8.20;;;;;;;-145.50;100.00;65435.88;5089728;28;20551;-76
2021/06/06 10:25:40;;;;;;;11.65;8.65;;;;;;;-145.50;100.00;65435.88;5100235;28;20134;-75
2021/06/06 10:28:08;;;;;;;10.82;8.07;;;;;;;-145.50;100.00;65435.88;5086977;28;20492;-75
2021/06/06 10:30:56;;;;;;;10.35;7.80;;;;;;;-145.50;100.00;65435.88;5086020;28;20130;-75
2021/06/06 10:33:30;;;;;;;12.75;8.30;;;;;;;-145.50;100.00;65435.88;5093270;28;20104;-75
2021/06/06 10:35:59;;;;;;;11.43;8.23;;;;;;;-145.50;100.00;65435.88;5086097;28;20463;-75
2021/06/06 10:38:28;;;;;;;11.25;8.23;;;;;;;-145.50;100.00;65435.88;5095572;28;20487;-75
2021/06/06 10:41:00;;;;;;;11.52;8.40;;;;;;;-145.50;100.00;65435.88;5097384;28;20071;-75
2021/06/06 10:43:42;;;;;;;11.55;7.05;;;;;;;-145.50;100.00;65435.88;5086470;28;20051;-74
2021/06/06 10:46:19;;;;;;;13.80;8.45;;;;;;;-145.50;100.00;65435.88;5100176;28;20051;-74
2021/06/06 10:48:54;;;;;;;9.98;7.60;;;;;;;-145.50;100.00;65435.88;5094006;28;20538;-75
2021/06/06 10:51:24;;;;;;;9.35;6.88;;;;;;;-145.50;100.00;65435.88;5100496;27;20040;-75
2021/06/06 10:53:53;;;;;;;11.43;6.90;;;;;;;-145.50;100.00;65435.88;5094238;28;20093;-75
2021/06/06 10:56:56;;;;;;;9.60;6.15;;;;;;;-145.50;100.00;65435.88;5092455;27;20822;-75
2021/06/06 10:59:50;;;;;;;9.70;6.32;;;;;;;-145.50;100.00;65435.88;5094839;28;20047;-74
2021/06/06 11:02:34;;;;;;;9.77;7.00;;;;;;;-145.50;100.00;65435.88;5079020;28;20110;-75
2021/06/06 11:05:22;;;;;;;7.95;6.70;;;;;;;-145.50;100.00;65435.88;5082958;28;20047;-75
2021/06/06 11:07:49;;;;;;;7.85;6.07;;;;;;;-145.50;100.00;65435.88;5094952;28;20206;-75
2021/06/06 11:10:16;;;;;;;9.57;6.70;;;;;;;-145.50;100.00;65435.88;5094393;28;20134;-75
2021/06/06 11:12:45;;;;;;;9.80;6.40;;;;;;;-145.50;100.00;65435.88;5074931;28;20483;-75
2021/06/06 11:15:30;;;;;;;10.60;6.20;;;;;;;-145.50;100.00;65435.88;5101354;28;20127;-75